Terminal Aerodrome Forecast
Issued by NWS

Home | Current Version | Previous Version | Text Only | Print | Product List | Glossary On
Versions: 1 2 3 4 5 6 7 8 9 10 11 12 13 14 15 16 17
000
FTUS41 KBTV 200536
TAFSLK
TAF
KSLK 200536Z 2006/2106 24006KT P6SM OVC015
      TEMPO 2006/2010 5SM BR OVC010
     FM201000 28007KT P6SM BKN030
     FM201600 28007KT P6SM SCT030
     FM210000 VRB03KT P6SM SKC=

USA.gov is the U.S. government's official web portal to all federal, state and local government web resources and services.